Time;durP1;ratioP1;P1;durP2;ratioP2;P2;SDS_P1;SDS_P2;PMS_P1;PMS_P2;Temp;Humidity;BMP_temperature;BMP_pressure;BME280_temperature;BME280_humidity;BME280_pressure;Samples;Min_cycle;Max_cycle;Signal;HPM_P1;HPM_P2
2022/08/02 00:00:43;;;;;;;;;3.00;3.00;;;;;26.10;43.93;101396.38;5038347;28;45935;-43
2022/08/02 00:03:09;;;;;;;;;4.00;3.25;;;;;26.12;43.98;101395.31;5038690;28;45387;-44
2022/08/02 00:05:34;;;;;;;;;5.75;3.50;;;;;26.14;43.75;101393.41;5038505;28;45330;-44
2022/08/02 00:07:59;;;;;;;;;3.50;3.50;;;;;26.14;43.95;101396.06;5039221;28;45493;-45
2022/08/02 00:10:25;;;;;;;;;4.00;4.00;;;;;26.15;44.17;101394.25;5038132;28;46120;-51
2022/08/02 00:12:50;;;;;;;;;3.00;3.00;;;;;26.16;43.77;101396.81;5038529;28;45213;-52
2022/08/02 00:15:15;;;;;;;;;3.50;3.50;;;;;26.17;43.50;101402.97;5038894;28;45362;-52
2022/08/02 00:17:41;;;;;;;;;4.75;4.50;;;;;26.19;43.72;101393.91;5038390;28;45327;-57
2022/08/02 00:20:06;;;;;;;;;5.75;4.00;;;;;26.18;43.81;101394.88;5038312;28;46134;-52
2022/08/02 00:22:32;;;;;;;;;2.25;2.25;;;;;26.18;43.46;101394.88;5038129;28;45237;-52
2022/08/02 00:24:57;;;;;;;;;4.00;4.00;;;;;26.18;43.85;101392.22;5038456;28;45600;-48
2022/08/02 00:27:22;;;;;;;;;2.25;2.25;;;;;26.19;43.67;101393.06;5036841;28;45648;-50
2022/08/02 00:29:49;;;;;;;;;6.00;3.50;;;;;26.17;43.97;101384.34;5037250;28;46572;-51
2022/08/02 00:32:14;;;;;;;;;2.00;2.00;;;;;26.17;43.23;101387.00;5038459;28;45463;-45
2022/08/02 00:34:40;;;;;;;;;3.75;3.75;;;;;26.15;43.48;101379.16;5038070;28;45429;-57
2022/08/02 00:37:05;;;;;;;;;3.00;3.00;;;;;26.14;43.34;101388.09;5038383;28;45437;-54
2022/08/02 00:39:30;;;;;;;;;2.25;2.25;;;;;26.14;43.45;101390.75;5037894;28;45412;-52
2022/08/02 00:41:56;;;;;;;;;3.00;3.00;;;;;26.13;43.58;101386.38;5037792;28;48420;-52
2022/08/02 00:44:21;;;;;;;;;5.75;3.25;;;;;26.11;43.45;101385.66;5037949;28;45368;-51
2022/08/02 00:46:47;;;;;;;;;4.00;3.00;;;;;26.12;43.37;101389.16;5038461;28;45327;-48
2022/08/02 00:49:13;;;;;;;;;2.00;2.00;;;;;26.11;43.54;101388.31;5037817;28;45438;-45
2022/08/02 00:51:39;;;;;;;;;3.00;3.00;;;;;26.11;43.35;101383.00;5037582;28;45693;-50
2022/08/02 00:54:06;;;;;;;;;3.25;2.25;;;;;26.10;43.17;101383.94;5038004;28;45399;-49
2022/08/02 00:56:31;;;;;;;;;3.00;3.00;;;;;26.11;43.19;101384.81;5037777;28;45342;-46
2022/08/02 00:58:57;;;;;;;;;4.00;2.00;;;;;26.10;43.39;101394.56;5037556;28;46553;-56
2022/08/02 01:01:38;;;;;;;;;3.25;2.25;;;;;26.09;43.43;101387.53;5036845;28;45229;-45
2022/08/02 01:04:05;;;;;;;;;2.50;1.75;;;;;26.10;43.42;101391.06;5037663;28;45318;-47
2022/08/02 01:06:32;;;;;;;;;2.00;2.00;;;;;26.09;43.30;101400.81;5037761;28;45561;-48
2022/08/02 01:08:58;;;;;;;;;2.75;2.75;;;;;26.07;42.96;101398.25;5037372;28;45377;-45
2022/08/02 01:11:23;;;;;;;;;3.50;3.00;;;;;26.05;43.32;101388.72;5037407;28;45245;-51
2022/08/02 01:13:49;;;;;;;;;3.00;3.00;;;;;26.07;43.18;101394.78;5036845;28;45264;-52
2022/08/02 01:16:19;;;;;;;;;2.00;2.00;;;;;26.06;43.56;101393.06;5038101;28;45437;-55
2022/08/02 01:18:53;;;;;;;;;4.50;3.00;;;;;26.07;43.23;101392.13;5037621;28;45706;-60
2022/08/02 01:21:36;;;;;;;;;3.00;3.00;;;;;26.04;43.48;101385.19;5037780;28;45380;-47
2022/08/02 01:24:36;;;;;;;;;3.00;3.00;;;;;26.06;43.38;101393.06;5037577;28;45306;-49
2022/08/02 01:27:39;;;;;;;;;3.75;3.00;;;;;26.03;43.69;101396.78;5037760;28;45230;-52
2022/08/02 01:30:06;;;;;;;;;3.00;3.00;;;;;26.03;43.45;101390.63;5037029;28;45677;-54
2022/08/02 01:32:36;;;;;;;;;3.00;2.25;;;;;26.03;43.27;101395.94;5037085;28;45728;-48
2022/08/02 01:35:15;;;;;;;;;4.25;3.25;;;;;26.03;43.16;101401.25;5037359;28;45462;-52
2022/08/02 01:38:11;;;;;;;;;2.75;2.75;;;;;26.02;43.49;101399.53;5037364;28;45522;-48
2022/08/02 01:40:40;;;;;;;;;2.00;2.00;;;;;26.00;43.79;101397.00;5011069;28;45306;-51
2022/08/02 01:43:07;;;;;;;;;4.25;3.25;;;;;26.01;43.52;101398.72;5037258;28;45707;-47
2022/08/02 01:45:36;;;;;;;;;3.75;3.75;;;;;26.00;43.53;101402.31;5052425;28;45279;-52
2022/08/02 01:48:03;;;;;;;;;2.75;2.50;;;;;26.00;43.60;101404.09;5037381;28;45261;-48
2022/08/02 01:50:32;;;;;;;;;2.00;2.00;;;;;26.00;43.65;101402.31;5036656;28;47240;-49
2022/08/02 01:53:01;;;;;;;;;3.00;3.00;;;;;26.00;43.45;101407.63;5035670;28;45307;-52
2022/08/02 01:55:36;;;;;;;;;3.25;3.00;;;;;26.00;43.27;101398.81;5036722;28;45365;-50
2022/08/02 01:58:05;;;;;;;;;2.00;2.00;;;;;26.01;43.14;101397.84;5037264;28;45343;-51
2022/08/02 02:00:35;;;;;;;;;4.50;3.00;;;;;26.00;43.43;101397.00;5036404;28;45628;-58
2022/08/02 02:03:03;;;;;;;;;2.75;2.75;;;;;25.99;43.07;101394.44;5036793;28;45373;-48
2022/08/02 02:05:31;;;;;;;;;4.75;4.00;;;;;25.99;43.20;101391.78;5036580;28;45244;-50
2022/08/02 02:07:59;;;;;;;;;3.00;3.00;;;;;26.00;43.20;101396.16;5035766;28;45609;-52
2022/08/02 02:10:30;;;;;;;;;1.00;1.00;;;;;25.98;43.35;101393.59;5036218;28;46833;-53
2022/08/02 02:13:01;;;;;;;;;3.75;2.75;;;;;25.98;43.10;101390.09;5035412;28;45468;-55
2022/08/02 02:15:28;;;;;;;;;4.25;3.00;;;;;25.96;43.49;101392.84;5036519;28;45351;-48
2022/08/02 02:17:56;;;;;;;;;3.75;3.00;;;;;25.94;42.88;101386.78;5036770;28;45329;-56
2022/08/02 02:20:22;;;;;;;;;2.50;2.50;;;;;25.95;42.78;101382.34;5036136;28;46368;-56
2022/08/02 02:22:47;;;;;;;;;3.00;3.00;;;;;25.95;42.85;101379.69;5036873;28;45346;-49
2022/08/02 02:25:15;;;;;;;;;2.50;2.00;;;;;25.93;42.78;101378.00;5036569;28;45327;-58
2022/08/02 02:28:03;;;;;;;;;2.75;2.50;;;;;25.93;43.04;101375.34;5036526;28;45270;-55
2022/08/02 02:30:32;;;;;;;;;3.00;3.00;;;;;25.92;42.60;101375.44;5036052;28;46254;-55
2022/08/02 02:32:59;;;;;;;;;2.00;2.00;;;;;25.92;42.74;101370.97;5036367;28;45806;-46
2022/08/02 02:35:29;;;;;;;;;2.50;2.50;;;;;25.92;42.56;101378.09;5036240;28;45503;-45
2022/08/02 02:37:55;;;;;;;;;3.00;3.00;;;;;25.91;42.82;101376.38;5036464;28;45545;-46
2022/08/02 02:40:23;;;;;;;;;4.00;2.00;;;;;25.89;43.11;101373.00;5035959;28;45669;-53
2022/08/02 02:42:50;;;;;;;;;3.25;2.00;;;;;25.91;42.89;101376.38;5036388;28;45765;-51
2022/08/02 02:45:17;;;;;;;;;2.00;2.00;;;;;25.89;42.46;101368.53;5036715;28;45347;-49
2022/08/02 02:47:44;;;;;;;;;2.00;2.00;;;;;25.90;42.84;101375.53;5036243;28;45510;-47
2022/08/02 02:50:10;;;;;;;;;1.00;1.00;;;;;25.88;42.95;101361.53;5034626;28;47249;-44
2022/08/02 02:52:38;;;;;;;;;2.00;1.25;;;;;25.88;42.71;101366.84;5035700;28;45905;-44
2022/08/02 02:55:05;;;;;;;;;2.00;2.00;;;;;25.89;42.54;101371.19;5034789;28;45386;-45
2022/08/02 02:57:31;;;;;;;;;3.25;3.25;;;;;25.88;42.30;101372.16;5035874;28;45339;-47
2022/08/02 02:59:58;;;;;;;;;2.00;2.00;;;;;25.88;42.24;101372.16;5035884;28;46240;-54
2022/08/02 03:02:23;;;;;;;;;2.00;2.00;;;;;25.88;42.14;101366.84;5035619;28;45621;-50
2022/08/02 03:04:50;;;;;;;;;3.00;3.00;;;;;25.87;42.65;101370.44;5036330;28;45237;-48
2022/08/02 03:07:16;;;;;;;;;3.00;2.00;;;;;25.88;42.14;101360.69;5036462;28;45311;-44
2022/08/02 03:09:41;;;;;;;;;2.00;2.00;;;;;25.87;42.69;101370.44;5035404;28;46782;-48
2022/08/02 03:12:08;;;;;;;;;4.25;2.00;;;;;25.87;42.28;101365.13;5035774;28;45270;-45
2022/08/02 03:14:34;;;;;;;;;1.75;1.75;;;;;25.87;42.14;101358.97;5035722;28;45434;-45
2022/08/02 03:16:59;;;;;;;;;4.25;3.50;;;;;25.85;42.29;101361.72;5036202;28;45404;-46
2022/08/02 03:19:25;;;;;;;;;3.00;3.00;;;;;25.83;42.23;101368.97;5035372;28;46597;-52
2022/08/02 03:21:50;;;;;;;;;4.75;4.00;;;;;25.83;42.60;101368.09;5035666;28;45355;-55
2022/08/02 03:24:16;;;;;;;;;2.50;2.50;;;;;25.83;42.67;101366.31;5036961;28;45162;-48
2022/08/02 03:26:41;;;;;;;;;2.50;2.50;;;;;25.82;42.53;101361.09;5039258;28;45212;-46
2022/08/02 03:29:08;;;;;;;;;2.50;2.50;;;;;25.81;42.03;101365.56;5039095;28;46561;-44
2022/08/02 03:31:34;;;;;;;;;2.25;1.25;;;;;25.80;42.54;101363.88;5038925;28;45726;-44
2022/08/02 03:34:00;;;;;;;;;2.75;2.75;;;;;25.80;41.85;101360.38;5039304;28;45424;-45
2022/08/02 03:36:29;;;;;;;;;4.00;3.00;;;;;25.79;42.07;101362.16;5039136;28;45390;-51
2022/08/02 03:38:56;;;;;;;;;3.75;2.50;;;;;25.78;42.00;101360.47;5039017;28;45852;-50
2022/08/02 03:41:22;;;;;;;;;3.00;2.50;;;;;25.78;42.29;101365.78;5038824;28;45460;-45
2022/08/02 03:43:49;;;;;;;;;2.00;2.00;;;;;25.76;42.38;101363.25;5039519;28;45371;-46
2022/08/02 03:46:18;;;;;;;;;2.00;2.00;;;;;25.76;42.68;101362.38;5039704;28;45375;-48
2022/08/02 03:48:44;;;;;;;;;2.00;2.00;;;;;25.74;42.34;101366.97;5054045;28;45387;-46
2022/08/02 03:51:10;;;;;;;;;2.00;2.00;;;;;25.73;41.87;101360.78;5038973;28;45928;-53
2022/08/02 03:53:36;;;;;;;;;2.00;2.00;;;;;25.73;42.01;101362.63;5038676;28;45287;-51
2022/08/02 03:56:04;;;;;;;;;2.75;2.75;;;;;25.73;41.91;101358.13;5038964;28;45255;-45
2022/08/02 03:58:29;;;;;;;;;2.00;2.00;;;;;25.72;42.26;101347.63;5038513;28;47680;-45
2022/08/02 04:00:56;;;;;;;;;2.00;2.00;;;;;25.70;42.09;101349.53;5038954;28;45390;-48
2022/08/02 04:03:22;;;;;;;;;2.00;2.00;;;;;25.68;42.35;101348.78;5038624;28;45316;-44
2022/08/02 04:05:48;;;;;;;;;2.75;1.75;;;;;25.68;42.29;101346.13;5039144;28;45318;-48
2022/08/02 04:08:13;;;;;;;;;2.75;2.75;;;;;25.65;42.20;101344.56;5038366;28;46081;-46
2022/08/02 04:13:37;;;;;;;;;1.50;1.50;;;;;25.61;42.63;101348.38;5004571;28;45330;-52
2022/08/02 04:16:17;;;;;;;;;2.25;2.25;;;;;25.61;42.45;101343.91;5038746;28;45359;-48
2022/08/02 04:18:50;;;;;;;;;2.75;2.50;;;;;25.59;42.65;101343.16;5038101;28;45640;-57
2022/08/02 04:21:19;;;;;;;;;1.75;1.75;;;;;25.61;42.10;101349.22;5038497;28;45350;-52
2022/08/02 04:23:47;;;;;;;;;1.50;1.50;;;;;25.62;42.55;101348.28;5038891;28;45410;-61
2022/08/02 04:26:13;;;;;;;;;2.00;2.00;;;;;25.62;42.62;101350.94;5038706;28;45563;-61
2022/08/02 04:28:40;;;;;;;;;2.25;2.25;;;;;25.63;42.31;101355.25;5038077;28;45707;-61
2022/08/02 04:31:06;;;;;;;;;3.25;3.00;;;;;25.62;42.11;101353.59;5038257;28;45412;-53
2022/08/02 04:33:33;;;;;;;;;2.00;2.00;;;;;25.63;42.55;101349.94;5038190;28;45349;-59
2022/08/02 04:35:59;;;;;;;;;4.50;2.50;;;;;25.63;42.42;101351.78;5037368;28;45464;-48
2022/08/02 04:38:25;;;;;;;;;2.00;2.00;;;;;25.62;42.09;101350.94;5037980;28;45444;-46
2022/08/02 04:40:54;;;;;;;;;2.75;1.50;;;;;25.64;42.36;101353.47;5038000;28;45582;-63
2022/08/02 04:43:21;;;;;;;;;3.00;2.25;;;;;25.61;42.35;101351.88;5038254;28;45494;-45
2022/08/02 04:45:52;;;;;;;;;2.25;2.25;;;;;25.62;42.30;101361.56;5038691;28;45410;-61
2022/08/02 04:48:17;;;;;;;;;3.00;3.00;;;;;25.60;41.99;101360.81;5038158;28;46678;-48
2022/08/02 04:50:43;;;;;;;;;1.50;1.00;;;;;25.61;42.24;101365.16;5037763;28;45442;-46
2022/08/02 04:53:08;;;;;;;;;3.00;3.00;;;;;25.60;42.15;101362.59;5036730;28;45372;-45
2022/08/02 04:55:33;;;;;;;;;2.50;2.50;;;;;25.56;41.87;101348.69;5037854;28;45292;-46
2022/08/02 04:57:59;;;;;;;;;2.50;2.50;;;;;25.53;42.42;101356.84;5037535;28;50925;-50
2022/08/02 05:00:27;;;;;;;;;3.00;3.00;;;;;25.51;42.45;101348.16;5037444;28;45430;-49
2022/08/02 05:02:54;;;;;;;;;4.00;3.00;;;;;25.50;42.28;101356.22;5036683;28;45441;-50
2022/08/02 05:05:20;;;;;;;;;3.25;3.25;;;;;25.47;42.44;101351.97;5053376;28;45519;-45
2022/08/02 05:07:45;;;;;;;;;3.00;3.00;;;;;25.44;42.68;101358.34;5037810;28;46582;-52
2022/08/02 05:10:10;;;;;;;;;3.00;2.75;;;;;25.43;42.74;101355.78;5037638;28;45485;-47
2022/08/02 05:12:37;;;;;;;;;4.25;4.00;;;;;25.40;42.67;101356.84;5037589;28;45465;-45
2022/08/02 05:15:03;;;;;;;;;4.00;3.50;;;;;25.39;42.95;101354.28;5036586;28;45610;-45
2022/08/02 05:17:28;;;;;;;;;4.00;3.00;;;;;25.35;42.77;101353.66;5037166;28;46492;-47
2022/08/02 05:19:53;;;;;;;;;4.00;4.00;;;;;25.32;42.72;101353.84;5037467;28;45311;-46
2022/08/02 05:22:18;;;;;;;;;4.00;4.00;;;;;25.27;43.56;101356.81;5037980;28;45309;-45
2022/08/02 05:24:44;;;;;;;;;5.00;4.00;;;;;25.22;43.56;101358.91;5037621;28;45205;-46
2022/08/02 05:27:09;;;;;;;;;5.00;3.00;;;;;25.15;43.68;101358.47;5037449;28;45611;-49
2022/08/02 05:29:34;;;;;;;;;6.00;4.00;;;;;25.10;43.37;101357.06;5037078;28;45744;-46
2022/08/02 05:32:00;;;;;;;;;4.00;4.00;;;;;25.05;43.52;101352.09;5037482;28;45312;-45
2022/08/02 05:34:25;;;;;;;;;4.00;4.00;;;;;25.01;44.21;101358.56;5037240;28;45338;-46
2022/08/02 05:36:51;;;;;;;;;4.75;3.50;;;;;24.95;43.73;101359.81;5035775;28;47851;-54
2022/08/02 05:39:16;;;;;;;;;4.00;4.00;;;;;24.92;44.02;101370.63;5037436;28;45426;-45
2022/08/02 05:41:41;;;;;;;;;5.00;5.00;;;;;24.85;44.01;101372.81;5037088;28;45429;-51
2022/08/02 05:44:06;;;;;;;;;3.25;3.25;;;;;24.83;44.25;101376.53;5037365;28;45529;-46
2022/08/02 05:46:32;;;;;;;;;4.75;4.00;;;;;24.80;44.48;101380.25;5036546;28;46450;-49
2022/08/02 05:48:57;;;;;;;;;4.00;4.00;;;;;24.77;44.20;101380.44;5036936;28;45351;-48
2022/08/02 05:51:34;;;;;;;;;4.00;4.00;;;;;24.74;44.12;101375.31;5035621;28;45391;-46
2022/08/02 05:54:09;;;;;;;;;4.75;3.25;;;;;24.73;44.63;101378.09;5037327;28;45459;-45
2022/08/02 05:57:03;;;;;;;;;5.25;3.25;;;;;24.69;44.17;101369.50;5036655;28;46145;-49
2022/08/02 05:59:32;;;;;;;;;4.25;4.25;;;;;24.69;44.78;101364.19;5010471;28;45697;-48
2022/08/02 06:02:02;;;;;;;;;7.00;4.75;;;;;24.69;44.44;101362.38;5036864;28;45327;-48
2022/08/02 06:04:40;;;;;;;;;5.00;3.25;;;;;24.70;45.08;101360.56;5036875;28;45312;-48
2022/08/02 06:07:09;;;;;;;;;4.25;4.25;;;;;24.69;44.81;101370.31;5036682;28;45422;-52
2022/08/02 06:09:35;;;;;;;;;4.25;3.75;;;;;24.69;44.98;101367.66;5035064;28;45695;-52
2022/08/02 06:12:02;;;;;;;;;5.75;5.00;;;;;24.73;45.35;101370.13;5036857;28;45471;-55
2022/08/02 06:14:29;;;;;;;;;5.50;5.00;;;;;24.73;44.81;101372.78;5036601;28;45422;-47
2022/08/02 06:16:55;;;;;;;;;7.00;4.50;;;;;24.75;45.26;101370.88;5036495;28;45727;-46
2022/08/02 06:19:22;;;;;;;;;5.75;4.50;;;;;24.76;44.97;101367.25;5036180;28;45252;-45
2022/08/02 06:21:48;;;;;;;;;5.00;5.00;;;;;24.77;44.67;101363.66;5036740;28;45374;-47
2022/08/02 06:24:17;;;;;;;;;4.00;4.00;;;;;24.78;45.32;101370.66;5036759;28;45324;-45
2022/08/02 06:26:43;;;;;;;;;8.25;5.25;;;;;24.79;45.43;101370.59;5034871;28;46514;-48
2022/08/02 06:29:11;;;;;;;;;4.75;4.00;;;;;24.81;44.95;101373.13;5036332;28;45684;-49
2022/08/02 06:31:37;;;;;;;;;4.50;4.50;;;;;24.81;45.48;101375.78;5036125;28;45294;-47
2022/08/02 06:34:02;;;;;;;;;7.00;6.00;;;;;24.82;45.35;101372.19;5036434;28;45635;-46
2022/08/02 06:36:37;;;;;;;;;4.50;4.50;;;;;24.83;45.19;101379.19;5035918;28;45455;-48
2022/08/02 06:39:31;;;;;;;;;6.75;6.00;;;;;24.84;45.29;101380.88;5036087;28;45744;-48
2022/08/02 06:42:01;;;;;;;;;4.75;4.75;;;;;24.86;45.21;101384.25;5036400;28;45439;-47
2022/08/02 06:44:28;;;;;;;;;4.25;3.00;;;;;24.85;45.25;101372.81;5036074;28;45403;-46
2022/08/02 06:46:53;;;;;;;;;3.00;3.00;;;;;24.89;44.98;101378.75;5035846;28;45466;-47
2022/08/02 06:49:19;;;;;;;;;3.75;3.75;;;;;24.90;45.18;101379.63;5036303;28;45327;-47
2022/08/02 06:51:44;;;;;;;;;6.00;4.75;;;;;24.90;44.99;101387.59;5036044;28;45337;-48
2022/08/02 06:54:10;;;;;;;;;7.00;4.00;;;;;24.91;45.06;101387.47;5034505;28;45492;-45
2022/08/02 06:56:35;;;;;;;;;5.00;5.00;;;;;24.92;44.57;101386.53;5033132;28;46624;-46
2022/08/02 06:59:00;;;;;;;;;5.00;5.00;;;;;24.94;44.56;101389.06;5034344;28;45330;-47
2022/08/02 07:01:26;;;;;;;;;8.00;5.00;;;;;24.96;44.49;101390.69;5035674;28;45342;-46
2022/08/02 07:03:52;;;;;;;;;5.00;4.75;;;;;24.98;44.67;101393.22;5036092;28;45323;-46
2022/08/02 07:06:17;;;;;;;;;7.00;5.00;;;;;24.99;44.88;101395.78;5035868;28;45192;-48
2022/08/02 07:08:43;;;;;;;;;6.75;6.00;;;;;25.02;44.48;101400.03;5035020;28;45323;-45
2022/08/02 07:11:09;;;;;;;;;4.25;4.25;;;;;25.03;44.27;101407.03;5035898;28;45876;-46
2022/08/02 07:13:34;;;;;;;;;6.25;6.00;;;;;25.05;44.65;101398.97;5035853;28;45230;-49
2022/08/02 07:16:02;;;;;;;;;8.25;7.00;;;;;25.07;44.32;101391.78;5035536;28;45396;-45
2022/08/02 07:18:27;;;;;;;;;5.00;5.00;;;;;25.10;44.63;101396.84;5035370;28;45378;-45
2022/08/02 07:20:53;;;;;;;;;7.25;6.00;;;;;25.11;44.38;101385.31;5035883;28;45315;-46
2022/08/02 07:23:19;;;;;;;;;5.25;5.25;;;;;25.09;44.16;101380.13;5036212;28;45417;-49
2022/08/02 07:25:44;;;;;;;;;6.00;5.75;;;;;25.12;44.06;101394.97;5035101;28;46062;-45
2022/08/02 07:28:10;;;;;;;;;6.25;4.25;;;;;25.11;44.30;101382.66;5035729;28;45392;-49
2022/08/02 07:30:36;;;;;;;;;5.50;5.50;;;;;25.12;43.99;101384.34;5035338;28;45344;-49
2022/08/02 07:33:02;;;;;;;;;5.00;5.00;;;;;25.11;44.29;101391.47;5051314;28;45701;-46
2022/08/02 07:35:28;;;;;;;;;6.50;5.00;;;;;25.11;44.35;101404.75;5035173;28;46536;-54
2022/08/02 07:37:53;;;;;;;;;6.25;5.00;;;;;25.09;44.15;101406.63;5035349;28;45236;-46
2022/08/02 07:40:20;;;;;;;;;6.00;6.00;;;;;25.09;43.90;101411.94;5034036;28;45521;-49
2022/08/02 07:42:46;;;;;;;;;6.00;6.00;;;;;25.08;44.38;101402.28;5034536;28;45483;-48
2022/08/02 07:45:12;;;;;;;;;5.75;3.25;;;;;25.09;43.88;101403.13;5033917;28;47467;-58
2022/08/02 07:47:39;;;;;;;;;7.00;5.75;;;;;25.11;44.05;101401.22;5035039;28;45407;-49
2022/08/02 07:50:06;;;;;;;;;5.00;5.00;;;;;25.11;44.18;101396.78;5035219;28;45352;-50
2022/08/02 07:52:31;;;;;;;;;5.00;5.00;;;;;25.12;44.03;101405.56;5034875;28;45299;-47
2022/08/02 07:54:57;;;;;;;;;2.50;2.50;;;;;25.10;44.21;101397.72;5034849;28;45653;-47
2022/08/02 07:57:22;;;;;;;;;5.75;5.75;;;;;25.09;44.35;101403.13;5034553;28;45658;-47
2022/08/02 07:59:49;;;;;;;;;10.50;6.50;;;;;25.10;43.94;101391.56;5035336;28;45337;-49
2022/08/02 08:02:14;;;;;;;;;8.00;6.00;;;;;25.09;43.96;101392.50;5035631;28;45560;-49
2022/08/02 08:04:40;;;;;;;;;6.50;6.50;;;;;25.07;44.64;101391.78;5050093;28;48256;-49
2022/08/02 08:07:08;;;;;;;;;5.00;5.00;;;;;25.06;44.53;101396.22;5034670;28;53927;-49
2022/08/02 08:09:38;;;;;;;;;6.00;6.00;;;;;25.05;44.60;101398.97;5034567;28;45773;-49
2022/08/02 08:12:05;;;;;;;;;9.25;4.75;;;;;25.04;44.63;101391.97;5038757;28;45543;-50
2022/08/02 08:14:30;;;;;;;;;8.00;7.00;;;;;25.02;44.71;101378.84;5038161;28;45602;-50
2022/08/02 08:16:55;;;;;;;;;7.75;4.50;;;;;25.03;44.98;101401.72;5053909;28;45419;-53
2022/08/02 08:19:20;;;;;;;;;5.00;4.00;;;;;25.04;44.59;101384.84;5037827;28;52219;-49
2022/08/02 08:21:46;;;;;;;;;6.00;6.00;;;;;25.05;44.46;101383.06;5039026;28;45293;-49
2022/08/02 08:24:11;;;;;;;;;7.00;5.25;;;;;25.03;44.32;101380.50;5038416;28;47268;-54
2022/08/02 08:26:38;;;;;;;;;5.25;5.25;;;;;25.03;44.87;101392.94;5038019;28;45412;-49
2022/08/02 08:29:05;;;;;;;;;9.00;7.75;;;;;25.03;44.64;101391.09;5038498;28;45288;-51
2022/08/02 08:31:30;;;;;;;;;8.25;6.25;;;;;25.01;44.52;101385.91;5038508;28;45370;-51
2022/08/02 08:33:55;;;;;;;;;6.00;6.00;;;;;25.04;45.48;101397.28;5038124;28;46511;-47
2022/08/02 08:36:21;;;;;;;;;8.50;5.25;;;;;25.06;45.07;101388.25;5037850;28;45449;-51
2022/08/02 08:38:47;;;;;;;;;8.25;5.75;;;;;25.05;44.86;101383.06;5038592;28;45418;-53
2022/08/02 08:41:15;;;;;;;;;7.00;5.50;;;;;25.10;45.39;101380.94;5038351;28;45178;-49
2022/08/02 08:43:41;;;;;;;;;6.25;6.25;;;;;25.11;45.24;101382.66;5037807;28;46439;-52
2022/08/02 08:46:09;;;;;;;;;5.75;5.50;;;;;25.10;45.30;101379.16;5036290;28;45490;-54
2022/08/02 08:48:42;;;;;;;;;10.50;7.00;;;;;25.09;44.90;101382.75;5037933;28;45259;-52
2022/08/02 08:51:13;;;;;;;;;4.00;4.00;;;;;25.09;44.77;101379.25;5038257;28;45346;-52
2022/08/02 08:53:42;;;;;;;;;6.50;5.00;;;;;25.10;45.01;101386.25;5036271;28;46614;-50
2022/08/02 08:56:10;;;;;;;;;7.75;7.00;;;;;25.10;44.64;101380.94;5035920;28;45711;-51
2022/08/02 08:58:37;;;;;;;;;5.00;5.00;;;;;25.09;44.63;101381.91;5036779;28;45818;-52
2022/08/02 09:01:03;;;;;;;;;5.50;5.50;;;;;25.10;45.04;101380.94;5037333;28;45473;-51
2022/08/02 09:03:28;;;;;;;;;7.00;6.25;;;;;25.09;44.73;101380.13;5037376;28;46494;-53
2022/08/02 09:05:57;;;;;;;;;6.00;6.00;;;;;25.10;44.95;101380.94;5037604;28;45262;-53
2022/08/02 09:08:22;;;;;;;;;7.00;7.00;;;;;25.09;45.04;101377.47;5037438;28;45447;-54
2022/08/02 09:10:48;;;;;;;;;9.00;5.50;;;;;25.12;44.68;101373.75;5038181;28;45320;-52
2022/08/02 09:13:19;;;;;;;;;6.00;6.00;;;;;25.13;44.92;101370.16;5037509;28;47051;-51
2022/08/02 09:15:54;;;;;;;;;6.00;5.00;;;;;25.17;45.33;101371.66;5036498;28;45409;-53
2022/08/02 09:18:20;;;;;;;;;6.25;6.00;;;;;25.19;44.42;101379.50;5037451;28;45215;-49
2022/08/02 09:20:59;;;;;;;;;10.00;8.00;;;;;25.19;44.56;101375.03;5037993;28;45504;-49
2022/08/02 09:23:25;;;;;;;;;8.50;7.00;;;;;25.22;44.78;101372.19;5036653;28;45931;-50
2022/08/02 09:25:58;;;;;;;;;5.75;5.00;;;;;25.22;44.75;101369.53;5037325;28;45339;-50
2022/08/02 09:28:35;;;;;;;;;7.00;5.00;;;;;25.21;44.87;101373.13;5037389;28;45320;-52
2022/08/02 09:31:07;;;;;;;;;5.25;4.75;;;;;25.23;44.66;101368.56;5037730;28;45308;-51
2022/08/02 09:33:32;;;;;;;;;7.75;7.75;;;;;25.23;44.94;101365.91;5036911;28;47426;-49
2022/08/02 09:36:04;;;;;;;;;6.00;6.00;;;;;25.25;44.48;101363.16;5035500;28;45333;-53
2022/08/02 09:38:31;;;;;;;;;5.50;5.25;;;;;25.26;44.33;101363.06;5037070;28;45239;-52
2022/08/02 09:40:57;;;;;;;;;6.00;5.00;;;;;25.29;44.70;101364.66;5037424;28;45589;-53
2022/08/02 09:43:37;;;;;;;;;6.75;5.75;;;;;25.31;44.44;101366.25;5036824;28;46104;-48
2022/08/02 09:46:16;;;;;;;;;7.25;5.00;;;;;25.34;44.53;101356.38;5037113;28;45295;-52
2022/08/02 09:48:49;;;;;;;;;7.00;5.50;;;;;25.34;44.38;101353.72;5036957;28;45352;-50
2022/08/02 09:51:20;;;;;;;;;6.00;6.00;;;;;25.37;44.69;101356.19;5036322;28;45529;-48
2022/08/02 09:53:51;;;;;;;;;7.00;7.00;;;;;25.38;44.74;101353.41;5037221;28;46418;-50
2022/08/02 09:56:18;;;;;;;;;7.00;5.25;;;;;25.41;44.41;101355.91;5037186;28;45461;-52
2022/08/02 09:58:44;;;;;;;;;7.25;5.75;;;;;25.42;44.06;101354.09;5036802;28;45470;-50
2022/08/02 10:01:10;;;;;;;;;6.50;5.00;;;;;25.42;44.50;101349.63;5037226;28;45422;-50
2022/08/02 10:03:35;;;;;;;;;8.50;6.50;;;;;25.45;44.43;101351.22;5036423;28;46406;-52
2022/08/02 10:06:01;;;;;;;;;4.50;4.50;;;;;25.46;44.22;101347.63;5036717;28;45362;-51
2022/08/02 10:08:27;;;;;;;;;4.50;4.50;;;;;25.47;44.04;101347.50;5036514;28;45402;-53
2022/08/02 10:10:59;;;;;;;;;7.00;5.50;;;;;25.49;44.71;101344.75;5036949;28;45474;-53
2022/08/02 10:13:33;;;;;;;;;5.00;4.00;;;;;25.50;44.45;101335.84;5036463;28;46541;-54
2022/08/02 10:15:59;;;;;;;;;5.00;4.50;;;;;25.53;44.03;101346.22;5036404;28;45776;-53
2022/08/02 10:18:24;;;;;;;;;6.50;5.75;;;;;25.55;44.33;101339.03;5036410;28;45793;-53
2022/08/02 10:20:53;;;;;;;;;6.75;5.50;;;;;25.57;44.01;101336.28;5036775;28;45603;-55
2022/08/02 10:23:20;;;;;;;;;5.75;5.25;;;;;25.62;44.53;101342.09;5036646;28;46502;-52
2022/08/02 10:25:47;;;;;;;;;4.00;4.00;;;;;25.65;44.56;101330.41;5036771;28;45825;-52
2022/08/02 10:28:14;;;;;;;;;6.25;5.00;;;;;25.67;44.21;101336.47;5036547;28;45481;-50
2022/08/02 10:30:44;;;;;;;;;8.00;6.75;;;;;25.69;44.00;101338.06;5036454;28;45880;-51
2022/08/02 10:33:11;;;;;;;;;6.75;6.75;;;;;25.69;44.01;101334.56;5036032;28;45378;-53
2022/08/02 10:35:39;;;;;;;;;5.50;5.00;;;;;25.72;44.61;101337.84;5035287;28;45381;-53
2022/08/02 10:38:09;;;;;;;;;5.25;5.25;;;;;25.72;43.90;101334.34;5035689;28;45447;-51
2022/08/02 10:40:45;;;;;;;;;5.75;5.75;;;;;25.75;43.91;101336.78;5036296;28;45576;-53
2022/08/02 10:43:12;;;;;;;;;5.25;5.25;;;;;25.77;44.21;101342.84;5036238;28;46462;-53
2022/08/02 10:45:38;;;;;;;;;5.50;5.00;;;;;25.77;44.46;101329.56;5035906;28;45449;-50
2022/08/02 10:48:06;;;;;;;;;6.75;5.25;;;;;25.78;44.43;101329.47;5036358;28;45295;-53
2022/08/02 10:50:43;;;;;;;;;4.00;4.00;;;;;25.79;43.83;101327.66;5036060;28;45292;-53
2022/08/02 10:53:28;;;;;;;;;5.00;5.00;;;;;25.80;44.07;101326.69;5036085;28;46629;-54
2022/08/02 10:55:56;;;;;;;;;6.00;6.00;;;;;25.82;44.32;101326.56;5035949;28;45339;-49
2022/08/02 10:58:23;;;;;;;;;4.75;4.75;;;;;25.83;44.60;101328.28;5035862;28;45470;-50
2022/08/02 11:00:49;;;;;;;;;8.00;6.00;;;;;25.83;44.32;101326.50;5036588;28;45477;-53
2022/08/02 11:03:27;;;;;;;;;5.00;5.00;;;;;25.85;44.36;101324.56;5035714;28;46631;-52
2022/08/02 11:06:12;;;;;;;;;5.50;4.25;;;;;25.85;43.97;101324.56;5035499;28;45362;-52
2022/08/02 11:08:38;;;;;;;;;7.00;5.00;;;;;25.87;44.13;101320.00;5035775;28;45512;-51
2022/08/02 11:11:12;;;;;;;;;5.00;5.00;;;;;25.87;43.78;101320.00;5036124;28;45307;-53
2022/08/02 11:14:07;;;;;;;;;4.00;4.00;;;;;25.87;43.62;101320.00;5035358;28;46590;-52
2022/08/02 11:16:54;;;;;;;;;5.25;5.25;;;;;25.88;43.99;101316.38;5029944;28;45315;-53
2022/08/02 11:19:21;;;;;;;;;5.00;4.00;;;;;25.89;43.93;101315.44;5035575;28;45221;-51
2022/08/02 11:22:15;;;;;;;;;4.00;4.00;;;;;25.90;44.18;101317.13;5036342;28;45393;-50
2022/08/02 11:24:41;;;;;;;;;5.75;5.00;;;;;25.89;43.80;101306.63;5033628;28;45685;-53
2022/08/02 11:27:18;;;;;;;;;5.75;5.25;;;;;25.90;43.62;101301.19;5035607;28;45359;-51
2022/08/02 11:29:45;;;;;;;;;7.50;4.25;;;;;25.92;43.44;101304.59;5035623;28;45319;-50
2022/08/02 11:32:22;;;;;;;;;6.00;6.00;;;;;25.93;43.95;101300.13;5035865;28;45567;-54